Aviation Digital Data Service (ADDS)

Output produced by METARs form (1733 UTC 24 June 2019)
found at http://www.aviationweather.gov/metar/data/
 
Forecast for: SBRF (RECIFE/GUARARAPE, BR)
Text: TAF SBRF 241600Z 2418/2518 15012KT 9999 SCT025 TN22/2508Z TX28/2517Z
Forecast period: 1800 UTC 24 June 2019 to 0200 UTC 25 June 2019
Forecast type: FROM: standard forecast or significant change
Winds: from the SSE (150 degrees) at 14 MPH (12 knots; 6.2 m/s)
Visibility: 6 or more miles 10+ km)
Ceiling: at least 12,000 feet AGL
Clouds: scattered clouds at 2500 feet AGL
Weather: no significant weather forecast for this period
Text: BECMG 2502/2504 21005KT FEW023
Forecast period: 0200 to 1100 UTC 25 June 2019
Forecast type: BECOMING: Conditions expected to become as follows by 0400 UTC 25 June 2019
Winds: from the SSW (210 degrees) at 6 MPH (5 knots; 2.6 m/s)
Visibility: 6 or more miles 10+ km)
Ceiling: at least 12,000 feet AGL
Clouds: few clouds at 2300 feet AGL
Weather: no significant weather forecast for this period
Text: BECMG 2511/2513 14010KT SCT025 RMK PEM
Forecast period: 1100 to 1800 UTC 25 June 2019
Forecast type: BECOMING: Conditions expected to become as follows by 1300 UTC 25 June 2019
Winds: from the SE (140 degrees) at 12 MPH (10 knots; 5.1 m/s)
Visibility: 6 or more miles 10+ km)
Ceiling: at least 12,000 feet AGL
Clouds: scattered clouds at 2500 feet AGL
Weather: no significant weather forecast for this period